createdAt,value
2022-12-18T00:01:59.796Z,22.23
2022-12-18T00:04:27.913Z,24.02
2022-12-18T00:07:07.315Z,28.50
2022-12-18T00:09:54.016Z,21.33
2022-12-18T00:12:30.329Z,26.57
2022-12-18T00:15:03.351Z,24.50
2022-12-18T00:17:30.011Z,24.63
2022-12-18T00:19:57.757Z,29.35
2022-12-18T00:22:24.366Z,30.05
2022-12-18T00:25:00.378Z,27.17
2022-12-18T00:27:35.522Z,21.60
2022-12-18T00:30:14.486Z,24.50
2022-12-18T00:32:53.679Z,26.48
2022-12-18T00:38:01.412Z,22.80
2022-12-18T00:40:32.660Z,24.95
2022-12-18T00:43:05.216Z,29.80
2022-12-18T00:48:13.127Z,24.63
2022-12-18T00:50:52.445Z,24.57
2022-12-18T00:55:59.675Z,34.35
2022-12-18T00:58:36.727Z,22.65
2022-12-18T01:01:12.894Z,22.60
2022-12-18T01:03:39.874Z,28.73
2022-12-18T01:06:13.128Z,22.92
2022-12-18T01:08:45.851Z,31.85
2022-12-18T01:14:12.133Z,23.85
2022-12-18T01:16:51.023Z,19.87
2022-12-18T01:19:38.179Z,27.48
2022-12-18T01:22:04.947Z,34.03
2022-12-18T01:24:32.715Z,22.70
2022-12-18T01:27:08.745Z,31.55
2022-12-18T01:29:35.506Z,24.37
2022-12-18T01:32:05.372Z,24.48
2022-12-18T01:34:32.191Z,27.40
2022-12-18T01:37:05.374Z,19.95
2022-12-18T01:39:41.242Z,28.27
2022-12-18T01:42:22.726Z,22.27
2022-12-18T01:45:09.919Z,21.65
2022-12-18T01:47:56.833Z,24.20
2022-12-18T01:50:40.931Z,25.15
2022-12-18T01:53:13.647Z,22.27
2022-12-18T01:55:52.412Z,22.17
2022-12-18T01:58:58.199Z,20.90
2022-12-18T02:04:27.647Z,27.25
2022-12-18T02:07:18.216Z,22.55
2022-12-18T02:10:04.631Z,33.67
2022-12-18T02:12:53.664Z,22.55
2022-12-18T02:15:25.351Z,33.78
2022-12-18T02:18:18.578Z,22.83
2022-12-18T02:20:48.374Z,22.38
2022-12-18T02:26:50.962Z,23.85
2022-12-18T02:29:29.548Z,23.25
2022-12-18T02:32:05.404Z,24.77
2022-12-18T02:37:35.272Z,26.67
2022-12-18T02:40:04.254Z,24.27
2022-12-18T02:42:36.755Z,33.42
2022-12-18T02:45:03.744Z,23.70
2022-12-18T02:47:34.780Z,26.42
2022-12-18T02:53:43.472Z,21.40
2022-12-18T02:56:39.714Z,23.02
2022-12-18T02:59:15.922Z,20.10
2022-12-18T03:01:55.358Z,22.90
2022-12-18T03:04:30.104Z,32.40
2022-12-18T03:06:59.379Z,27.70
2022-12-18T03:09:32.927Z,32.78
2022-12-18T03:12:06.124Z,25.10
2022-12-18T03:14:37.759Z,21.30
2022-12-18T03:17:07.987Z,25.83
2022-12-18T03:19:42.586Z,33.60
2022-12-18T03:22:23.992Z,29.85
2022-12-18T03:25:04.042Z,26.25
2022-12-18T03:27:52.345Z,25.17
2022-12-18T03:30:19.517Z,27.27
2022-12-18T03:35:39.866Z,23.77
2022-12-18T03:38:11.577Z,30.58
2022-12-18T03:44:15.484Z,24.13
2022-12-18T03:47:27.457Z,23.80
2022-12-18T03:50:02.657Z,29.83
2022-12-18T03:52:55.051Z,28.95
2022-12-18T03:55:35.526Z,31.65
2022-12-18T04:01:01.172Z,21.20
2022-12-18T04:03:31.558Z,20.75
2022-12-18T04:06:00.530Z,20.10
2022-12-18T04:08:28.094Z,29.75
2022-12-18T04:10:54.741Z,22.03
2022-12-18T04:13:28.502Z,31.90
2022-12-18T04:15:55.171Z,24.40
2022-12-18T04:18:21.955Z,17.90
2022-12-18T04:20:48.553Z,19.45
2022-12-18T04:23:15.195Z,22.00
2022-12-18T04:25:50.693Z,25.20
2022-12-18T04:28:26.465Z,21.67
2022-12-18T04:30:53.137Z,20.85
2022-12-18T04:33:23.116Z,20.92
2022-12-18T04:35:49.681Z,23.87
2022-12-18T04:38:26.545Z,26.23
2022-12-18T04:41:05.367Z,21.90
2022-12-18T04:43:32.036Z,28.23
2022-12-18T04:46:16.024Z,33.25
2022-12-18T04:48:54.972Z,22.27
2022-12-18T04:51:26.332Z,21.60
2022-12-18T04:54:02.457Z,22.50
2022-12-18T04:56:29.078Z,28.60
2022-12-18T04:59:11.128Z,25.02
2022-12-18T05:01:37.889Z,34.77
2022-12-18T05:04:09.816Z,24.60
2022-12-18T05:06:36.504Z,22.52
2022-12-18T05:09:09.269Z,21.73
2022-12-18T05:11:36.359Z,23.42
2022-12-18T05:14:03.089Z,21.23
2022-12-18T05:16:30.052Z,24.20
2022-12-18T05:18:56.696Z,32.08
2022-12-18T05:21:23.422Z,21.73
2022-12-18T05:23:54.898Z,25.92
2022-12-18T05:26:31.179Z,23.10
2022-12-18T05:28:57.888Z,27.20
2022-12-18T05:31:39.622Z,22.35
2022-12-18T05:34:06.843Z,21.52
2022-12-18T05:36:42.758Z,28.35
2022-12-18T05:39:38.608Z,20.80
2022-12-18T05:42:13.188Z,16.80
2022-12-18T05:47:20.323Z,28.05
2022-12-18T05:49:53.231Z,20.30
2022-12-18T05:52:19.834Z,21.80
2022-12-18T05:54:53.731Z,26.95
2022-12-18T05:57:20.387Z,16.13
2022-12-18T05:59:52.958Z,14.90
2022-12-18T06:02:19.698Z,17.40
2022-12-18T06:04:46.425Z,13.90
2022-12-18T06:07:19.132Z,14.23
2022-12-18T06:09:45.806Z,20.95
2022-12-18T06:12:12.563Z,25.25
2022-12-18T06:14:46.848Z,12.57
2022-12-18T06:17:13.615Z,12.60
2022-12-18T06:19:58.474Z,16.40
2022-12-18T06:22:40.118Z,18.00
2022-12-18T06:25:07.399Z,22.35
2022-12-18T06:27:35.756Z,17.48
2022-12-18T06:30:03.021Z,14.43
2022-12-18T06:32:44.724Z,15.75
2022-12-18T06:35:14.517Z,19.23
2022-12-18T06:37:41.150Z,14.52
2022-12-18T06:40:20.307Z,16.02
2022-12-18T06:42:46.881Z,20.93
2022-12-18T06:45:13.463Z,14.48
2022-12-18T06:47:40.055Z,15.43
2022-12-18T06:50:07.322Z,17.75
2022-12-18T06:52:34.387Z,12.35
2022-12-18T06:57:42.111Z,15.20
2022-12-18T07:00:09.266Z,17.80
2022-12-18T07:02:36.488Z,13.15
2022-12-18T07:05:08.936Z,12.90
2022-12-18T07:07:37.297Z,16.80
2022-12-18T07:10:04.690Z,13.15
2022-12-18T07:15:12.169Z,13.00
2022-12-18T07:17:38.738Z,14.35
2022-12-18T07:20:05.759Z,11.20
2022-12-18T07:22:34.972Z,11.93
2022-12-18T07:25:01.656Z,16.10
2022-12-18T07:27:28.330Z,14.57
2022-12-18T07:29:54.882Z,13.00
2022-12-18T07:35:12.109Z,16.52
2022-12-18T07:37:51.931Z,16.10
2022-12-18T07:40:18.513Z,12.68
2022-12-18T07:42:45.243Z,17.27
2022-12-18T07:45:23.331Z,14.93
2022-12-18T07:47:49.895Z,15.32
2022-12-18T07:52:57.287Z,13.07
2022-12-18T07:55:27.314Z,13.48
2022-12-18T07:57:59.218Z,12.97
2022-12-18T08:00:27.827Z,12.77
2022-12-18T08:03:00.493Z,11.00
2022-12-18T08:05:27.956Z,13.25
2022-12-18T08:07:55.026Z,12.60
2022-12-18T08:10:22.388Z,12.30
2022-12-18T08:12:52.565Z,11.63
2022-12-18T08:15:19.555Z,14.93
2022-12-18T08:17:46.157Z,15.07
2022-12-18T08:20:13.162Z,13.10
2022-12-18T08:22:39.892Z,14.40
2022-12-18T08:25:07.124Z,13.60
2022-12-18T08:27:33.737Z,24.15
2022-12-18T08:30:00.942Z,17.67
2022-12-18T08:32:28.714Z,13.90
2022-12-18T08:34:55.455Z,13.33
2022-12-18T08:37:22.145Z,13.30
2022-12-18T08:39:48.788Z,12.45
2022-12-18T08:42:15.417Z,13.88
2022-12-18T08:44:42.063Z,11.75
2022-12-18T08:47:09.140Z,16.20
2022-12-18T08:49:36.482Z,12.52
2022-12-18T08:52:15.382Z,21.08
2022-12-18T08:54:42.154Z,16.50
2022-12-18T08:57:08.914Z,16.52
2022-12-18T08:59:35.855Z,11.47
2022-12-18T09:02:05.129Z,14.63
2022-12-18T09:07:12.426Z,11.45
2022-12-18T09:09:39.172Z,11.30
2022-12-18T09:12:06.026Z,10.97
2022-12-18T09:14:52.922Z,12.35
2022-12-18T09:17:19.568Z,14.48
2022-12-18T09:19:46.423Z,9.85
2022-12-18T09:22:13.104Z,15.73
2022-12-18T09:24:43.078Z,14.03
2022-12-18T09:27:11.791Z,11.50
2022-12-18T09:29:38.385Z,13.65
2022-12-18T09:32:05.332Z,13.98
2022-12-18T09:46:06.458Z,12.30
2022-12-18T09:48:45.339Z,8.63
2022-12-18T09:51:29.935Z,13.20
2022-12-18T10:00:42.484Z,11.13
2022-12-18T10:03:25.119Z,12.63
2022-12-18T10:37:31.634Z,10.15
2022-12-18T10:40:22.792Z,11.70
2022-12-18T10:43:27.188Z,10.48
2022-12-18T10:53:08.447Z,14.68
2022-12-18T10:59:26.805Z,11.07
2022-12-18T11:09:43.068Z,11.57
2022-12-18T11:27:35.276Z,12.13
2022-12-18T11:33:22.668Z,11.60
2022-12-18T11:35:56.466Z,12.35
2022-12-18T11:38:45.325Z,13.23
2022-12-18T11:41:23.915Z,12.03
2022-12-18T11:43:57.126Z,14.63
2022-12-18T11:49:51.228Z,14.77
2022-12-18T11:55:48.999Z,11.73
2022-12-18T11:58:53.917Z,10.90
2022-12-18T12:02:13.797Z,12.00
2022-12-18T12:05:27.701Z,10.13
2022-12-18T12:08:17.550Z,10.77
2022-12-18T12:11:26.104Z,12.07
2022-12-18T12:18:11.090Z,12.50
2022-12-18T12:28:00.256Z,13.70
2022-12-18T12:34:26.000Z,12.00
2022-12-18T12:41:07.291Z,11.60
2022-12-18T12:46:27.685Z,10.70
2022-12-18T12:53:26.143Z,10.75
2022-12-18T12:55:43.904Z,12.10
2022-12-18T13:04:29.998Z,13.80
2022-12-18T13:07:24.679Z,13.63
2022-12-18T13:13:13.538Z,10.70
2022-12-18T13:16:06.893Z,13.77
2022-12-18T13:18:52.664Z,13.40
2022-12-18T13:21:33.840Z,12.65
2022-12-18T13:26:37.442Z,11.17
2022-12-18T13:32:20.980Z,15.07
2022-12-18T13:35:35.717Z,12.25
2022-12-18T13:38:31.877Z,13.88
2022-12-18T13:41:25.072Z,12.60
2022-12-18T13:47:36.026Z,12.93
2022-12-18T13:50:32.457Z,13.38
2022-12-18T13:53:40.329Z,11.65
2022-12-18T13:56:31.649Z,11.57
2022-12-18T13:59:25.069Z,10.40
2022-12-18T14:02:15.617Z,11.70
2022-12-18T14:07:49.396Z,11.60
2022-12-18T14:13:06.658Z,11.27
2022-12-18T14:15:51.229Z,13.70
2022-12-18T14:18:54.287Z,13.40
2022-12-18T14:21:31.133Z,16.73
2022-12-18T14:24:12.725Z,12.10
2022-12-18T14:30:32.467Z,12.35
2022-12-18T14:33:26.182Z,11.60
2022-12-18T14:36:20.386Z,13.63
2022-12-18T14:39:04.638Z,12.13
2022-12-18T14:41:31.352Z,12.25
2022-12-18T14:44:13.911Z,14.60
2022-12-18T14:49:33.882Z,14.07
2022-12-18T14:52:44.744Z,11.23
2022-12-18T14:55:35.641Z,12.95
2022-12-18T14:58:03.057Z,13.05
2022-12-18T15:00:47.560Z,15.45
2022-12-18T15:03:55.931Z,13.30
2022-12-18T15:06:44.576Z,11.57
2022-12-18T15:09:36.953Z,12.05
2022-12-18T15:12:48.532Z,12.38
2022-12-18T15:15:46.167Z,11.50
2022-12-18T15:18:49.227Z,13.27
2022-12-18T15:21:36.842Z,12.53
2022-12-18T15:24:03.582Z,14.50
2022-12-18T15:26:51.215Z,13.10
2022-12-18T15:29:38.899Z,12.13
2022-12-18T15:35:26.216Z,12.33
2022-12-18T15:38:08.490Z,10.07
2022-12-18T15:40:35.200Z,10.82
2022-12-18T15:43:17.198Z,11.40
2022-12-18T15:45:43.924Z,13.93
2022-12-18T15:48:22.088Z,13.10
2022-12-18T15:51:10.843Z,13.90
2022-12-18T15:53:37.715Z,13.50
2022-12-18T15:56:18.395Z,11.48
2022-12-18T15:58:54.657Z,15.45
2022-12-18T16:01:43.210Z,14.97
2022-12-18T16:04:30.693Z,12.25
2022-12-18T16:07:14.835Z,12.50
2022-12-18T16:09:54.510Z,14.73
2022-12-18T16:12:51.639Z,15.90
2022-12-18T16:15:24.506Z,12.90
2022-12-18T16:18:13.012Z,15.40
2022-12-18T16:20:51.406Z,14.88
2022-12-18T16:23:40.333Z,14.50
2022-12-18T16:26:18.869Z,11.80
2022-12-18T16:31:37.011Z,16.58
2022-12-18T16:34:23.641Z,16.52
2022-12-18T16:37:08.017Z,15.88
2022-12-18T16:39:35.943Z,13.77
2022-12-18T16:42:20.820Z,14.37
2022-12-18T16:45:09.854Z,16.23
2022-12-18T16:47:59.481Z,14.02
2022-12-18T16:50:24.299Z,15.35
2022-12-18T16:52:59.300Z,15.85
2022-12-18T16:55:27.172Z,20.37
2022-12-18T16:57:57.796Z,14.48
2022-12-18T17:00:24.584Z,17.90
2022-12-18T17:02:51.476Z,15.30
2022-12-18T17:05:30.526Z,15.55
2022-12-18T17:07:57.284Z,19.07
2022-12-18T17:10:38.604Z,13.98
2022-12-18T17:13:05.303Z,21.25
2022-12-18T17:15:42.383Z,15.43
2022-12-18T17:18:09.120Z,15.70
2022-12-18T17:23:16.307Z,15.38
2022-12-18T17:25:42.971Z,13.02
2022-12-18T17:28:26.630Z,17.67
2022-12-18T17:30:54.384Z,14.20
2022-12-18T17:33:36.595Z,13.40
2022-12-18T17:36:03.486Z,14.65
2022-12-18T17:38:30.344Z,17.50
2022-12-18T17:41:12.641Z,16.40
2022-12-18T17:43:39.667Z,14.23
2022-12-18T17:46:19.080Z,15.43
2022-12-18T17:48:45.933Z,14.82
2022-12-18T17:54:04.883Z,13.95
2022-12-18T17:56:49.691Z,15.43
2022-12-18T17:59:16.620Z,13.67
2022-12-18T18:02:00.324Z,17.25
2022-12-18T18:04:28.161Z,14.27
2022-12-18T18:07:09.033Z,16.27
2022-12-18T18:09:35.789Z,15.15
2022-12-18T18:12:02.444Z,18.00
2022-12-18T18:14:35.276Z,14.93
2022-12-18T18:17:04.742Z,19.02
2022-12-18T18:19:41.504Z,15.43
2022-12-18T18:22:10.083Z,18.48
2022-12-18T18:24:37.995Z,12.50
2022-12-18T18:27:18.482Z,15.13
2022-12-18T18:29:45.387Z,15.25
2022-12-18T18:32:12.179Z,16.83
2022-12-18T18:35:02.969Z,16.00
2022-12-18T18:40:31.432Z,14.15
2022-12-18T18:42:58.143Z,15.80
2022-12-18T18:45:24.889Z,13.55
2022-12-18T18:50:32.335Z,15.70
2022-12-18T18:52:58.987Z,19.23
2022-12-18T18:55:43.686Z,15.27
2022-12-18T18:58:10.435Z,15.45
2022-12-18T19:01:01.100Z,15.13
2022-12-18T19:03:44.039Z,13.70
2022-12-18T19:06:23.075Z,14.20
2022-12-18T19:09:05.506Z,13.60
2022-12-18T19:14:24.345Z,14.70
2022-12-18T19:16:59.781Z,15.77
2022-12-18T19:19:45.801Z,17.98
2022-12-18T19:22:25.751Z,14.88
2022-12-18T19:25:07.572Z,15.43
2022-12-18T19:28:27.247Z,16.23
2022-12-18T19:31:06.827Z,16.70
2022-12-18T19:33:48.052Z,18.35
2022-12-18T19:36:33.041Z,17.17
2022-12-18T19:39:01.767Z,15.95
2022-12-18T19:41:37.881Z,19.83
2022-12-18T19:46:45.903Z,20.15
2022-12-18T19:49:28.107Z,18.13
2022-12-18T19:52:08.012Z,16.98
2022-12-18T19:54:34.962Z,17.13
2022-12-18T19:57:11.568Z,18.93
2022-12-18T19:59:59.876Z,17.63
2022-12-18T20:02:26.652Z,17.15
2022-12-18T20:05:10.613Z,16.48
2022-12-18T20:07:53.499Z,19.52
2022-12-18T20:10:35.483Z,21.90
2022-12-18T20:13:05.027Z,19.73
2022-12-18T20:18:12.558Z,19.65
2022-12-18T20:21:01.049Z,16.13
2022-12-18T20:23:54.293Z,18.27
2022-12-18T20:26:38.922Z,21.23
2022-12-18T20:29:27.290Z,15.70
2022-12-18T20:32:15.186Z,16.75
2022-12-18T20:34:57.395Z,20.70
2022-12-18T20:37:37.847Z,15.53
2022-12-18T20:40:18.006Z,15.50
2022-12-18T20:42:54.067Z,15.75
2022-12-18T20:45:36.679Z,15.68
2022-12-18T20:50:48.495Z,15.37
2022-12-18T22:04:21.677Z,16.27
2022-12-18T22:06:49.827Z,22.10
2022-12-18T22:11:00.613Z,23.15
2022-12-18T22:13:03.819Z,19.40
2022-12-18T22:15:49.029Z,19.55
